sensor_id;sensor_type;location;lat;lon;timestamp;P1;durP1;ratioP1;P2;durP2;ratioP2
35743;SDS011;21867;52.012;4.324;2022-12-29T00:01:06;3.10;;;2.80;;
35743;SDS011;21867;52.012;4.324;2022-12-29T00:03:49;2.40;;;2.30;;
35743;SDS011;21867;52.012;4.324;2022-12-29T00:06:16;5.70;;;3.23;;
35743;SDS011;21867;52.012;4.324;2022-12-29T00:08:44;2.77;;;2.57;;
35743;SDS011;21867;52.012;4.324;2022-12-29T00:11:12;4.03;;;3.27;;
35743;SDS011;21867;52.012;4.324;2022-12-29T00:13:40;4.53;;;3.03;;
35743;SDS011;21867;52.012;4.324;2022-12-29T00:16:09;3.10;;;2.83;;
35743;SDS011;21867;52.012;4.324;2022-12-29T00:18:36;3.67;;;3.10;;
35743;SDS011;21867;52.012;4.324;2022-12-29T00:21:03;2.50;;;2.30;;
35743;SDS011;21867;52.012;4.324;2022-12-29T00:23:31;3.90;;;2.77;;
35743;SDS011;21867;52.012;4.324;2022-12-29T00:26:02;2.60;;;2.50;;
35743;SDS011;21867;52.012;4.324;2022-12-29T00:28:29;3.23;;;2.63;;
35743;SDS011;21867;52.012;4.324;2022-12-29T00:30:58;3.07;;;2.70;;
35743;SDS011;21867;52.012;4.324;2022-12-29T00:33:29;7.13;;;2.90;;
35743;SDS011;21867;52.012;4.324;2022-12-29T00:42:19;5.13;;;2.60;;
35743;SDS011;21867;52.012;4.324;2022-12-29T00:44:46;4.53;;;2.90;;
35743;SDS011;21867;52.012;4.324;2022-12-29T00:47:14;4.97;;;3.20;;
35743;SDS011;21867;52.012;4.324;2022-12-29T00:52:28;4.53;;;2.93;;
35743;SDS011;21867;52.012;4.324;2022-12-29T00:54:56;3.83;;;2.97;;
35743;SDS011;21867;52.012;4.324;2022-12-29T00:57:23;3.40;;;2.70;;
35743;SDS011;21867;52.012;4.324;2022-12-29T00:59:51;3.20;;;2.67;;
35743;SDS011;21867;52.012;4.324;2022-12-29T01:02:18;5.93;;;2.87;;
35743;SDS011;21867;52.012;4.324;2022-12-29T01:04:45;3.27;;;2.27;;
35743;SDS011;21867;52.012;4.324;2022-12-29T01:07:42;3.10;;;2.53;;
35743;SDS011;21867;52.012;4.324;2022-12-29T01:10:10;4.97;;;2.43;;
35743;SDS011;21867;52.012;4.324;2022-12-29T01:12:38;2.73;;;2.53;;
35743;SDS011;21867;52.012;4.324;2022-12-29T01:15:15;3.77;;;3.13;;
35743;SDS011;21867;52.012;4.324;2022-12-29T01:21:23;2.80;;;2.50;;
35743;SDS011;21867;52.012;4.324;2022-12-29T01:23:52;2.63;;;2.40;;
35743;SDS011;21867;52.012;4.324;2022-12-29T01:26:20;4.60;;;2.50;;
35743;SDS011;21867;52.012;4.324;2022-12-29T01:28:50;4.30;;;2.47;;
35743;SDS011;21867;52.012;4.324;2022-12-29T01:31:17;5.97;;;2.70;;
35743;SDS011;21867;52.012;4.324;2022-12-29T01:33:45;3.47;;;2.50;;
35743;SDS011;21867;52.012;4.324;2022-12-29T01:36:13;4.07;;;2.33;;
35743;SDS011;21867;52.012;4.324;2022-12-29T01:38:42;3.63;;;2.43;;
35743;SDS011;21867;52.012;4.324;2022-12-29T01:41:12;3.87;;;2.40;;
35743;SDS011;21867;52.012;4.324;2022-12-29T01:43:41;8.30;;;3.00;;
35743;SDS011;21867;52.012;4.324;2022-12-29T01:49:18;4.10;;;2.80;;
35743;SDS011;21867;52.012;4.324;2022-12-29T01:51:47;3.30;;;2.17;;
35743;SDS011;21867;52.012;4.324;2022-12-29T01:54:16;5.57;;;2.50;;
35743;SDS011;21867;52.012;4.324;2022-12-29T01:56:46;2.60;;;2.20;;
35743;SDS011;21867;52.012;4.324;2022-12-29T01:59:15;6.10;;;2.60;;
35743;SDS011;21867;52.012;4.324;2022-12-29T02:01:44;6.63;;;2.50;;
35743;SDS011;21867;52.012;4.324;2022-12-29T02:06:54;3.83;;;2.73;;
35743;SDS011;21867;52.012;4.324;2022-12-29T02:09:22;7.47;;;2.70;;
35743;SDS011;21867;52.012;4.324;2022-12-29T02:11:51;4.00;;;2.17;;
35743;SDS011;21867;52.012;4.324;2022-12-29T02:14:37;3.17;;;2.40;;
35743;SDS011;21867;52.012;4.324;2022-12-29T02:23:16;4.80;;;2.53;;
35743;SDS011;21867;52.012;4.324;2022-12-29T02:25:52;8.73;;;2.50;;
35743;SDS011;21867;52.012;4.324;2022-12-29T02:28:30;3.40;;;1.90;;
35743;SDS011;21867;52.012;4.324;2022-12-29T02:31:05;6.07;;;2.40;;
35743;SDS011;21867;52.012;4.324;2022-12-29T02:36:23;8.13;;;2.90;;
35743;SDS011;21867;52.012;4.324;2022-12-29T02:38:56;8.23;;;3.13;;
35743;SDS011;21867;52.012;4.324;2022-12-29T02:41:29;13.83;;;3.87;;
35743;SDS011;21867;52.012;4.324;2022-12-29T02:44:08;9.27;;;2.90;;
35743;SDS011;21867;52.012;4.324;2022-12-29T02:53:06;12.33;;;4.43;;
35743;SDS011;21867;52.012;4.324;2022-12-29T02:55:34;13.13;;;5.60;;
35743;SDS011;21867;52.012;4.324;2022-12-29T02:58:13;10.50;;;3.37;;
35743;SDS011;21867;52.012;4.324;2022-12-29T03:00:44;9.00;;;3.63;;
35743;SDS011;21867;52.012;4.324;2022-12-29T03:06:08;17.97;;;5.03;;
35743;SDS011;21867;52.012;4.324;2022-12-29T03:08:42;18.73;;;4.60;;
35743;SDS011;21867;52.012;4.324;2022-12-29T03:11:13;16.67;;;4.10;;
35743;SDS011;21867;52.012;4.324;2022-12-29T03:20:26;10.60;;;4.20;;
35743;SDS011;21867;52.012;4.324;2022-12-29T03:22:59;8.07;;;3.40;;
35743;SDS011;21867;52.012;4.324;2022-12-29T03:25:31;7.90;;;3.20;;
35743;SDS011;21867;52.012;4.324;2022-12-29T03:28:03;6.43;;;2.93;;
35743;SDS011;21867;52.012;4.324;2022-12-29T03:30:35;9.97;;;3.60;;
35743;SDS011;21867;52.012;4.324;2022-12-29T03:33:10;9.27;;;3.73;;
35743;SDS011;21867;52.012;4.324;2022-12-29T03:35:40;10.33;;;3.03;;
35743;SDS011;21867;52.012;4.324;2022-12-29T03:38:11;9.10;;;4.00;;
35743;SDS011;21867;52.012;4.324;2022-12-29T03:40:42;14.20;;;4.40;;
35743;SDS011;21867;52.012;4.324;2022-12-29T03:43:17;12.33;;;3.67;;
35743;SDS011;21867;52.012;4.324;2022-12-29T03:48:46;11.27;;;3.73;;
35743;SDS011;21867;52.012;4.324;2022-12-29T03:51:13;11.73;;;4.20;;
35743;SDS011;21867;52.012;4.324;2022-12-29T03:53:41;8.30;;;3.10;;
35743;SDS011;21867;52.012;4.324;2022-12-29T03:56:10;8.87;;;4.20;;
35743;SDS011;21867;52.012;4.324;2022-12-29T03:58:37;10.40;;;3.70;;
35743;SDS011;21867;52.012;4.324;2022-12-29T04:01:10;8.03;;;3.53;;
35743;SDS011;21867;52.012;4.324;2022-12-29T04:06:27;14.20;;;4.00;;
35743;SDS011;21867;52.012;4.324;2022-12-29T04:09:04;14.33;;;4.23;;
35743;SDS011;21867;52.012;4.324;2022-12-29T04:11:39;13.50;;;4.77;;
35743;SDS011;21867;52.012;4.324;2022-12-29T04:14:18;18.80;;;5.77;;
35743;SDS011;21867;52.012;4.324;2022-12-29T04:19:53;20.07;;;5.07;;
35743;SDS011;21867;52.012;4.324;2022-12-29T04:22:21;15.53;;;4.90;;
35743;SDS011;21867;52.012;4.324;2022-12-29T04:24:48;14.77;;;4.90;;
35743;SDS011;21867;52.012;4.324;2022-12-29T04:27:17;11.90;;;5.23;;
35743;SDS011;21867;52.012;4.324;2022-12-29T04:30:18;15.43;;;3.97;;
35743;SDS011;21867;52.012;4.324;2022-12-29T04:33:23;7.00;;;2.93;;
35743;SDS011;21867;52.012;4.324;2022-12-29T04:35:50;10.53;;;3.80;;
35743;SDS011;21867;52.012;4.324;2022-12-29T04:38:18;6.30;;;3.07;;
35743;SDS011;21867;52.012;4.324;2022-12-29T04:40:47;10.30;;;3.50;;
35743;SDS011;21867;52.012;4.324;2022-12-29T04:43:17;14.33;;;5.17;;
35743;SDS011;21867;52.012;4.324;2022-12-29T04:46:03;15.40;;;3.63;;
35743;SDS011;21867;52.012;4.324;2022-12-29T04:48:57;13.97;;;4.03;;
35743;SDS011;21867;52.012;4.324;2022-12-29T04:51:41;13.20;;;4.80;;
35743;SDS011;21867;52.012;4.324;2022-12-29T04:54:10;13.80;;;5.00;;
35743;SDS011;21867;52.012;4.324;2022-12-29T04:56:39;11.60;;;3.80;;
35743;SDS011;21867;52.012;4.324;2022-12-29T04:59:08;13.50;;;3.93;;
35743;SDS011;21867;52.012;4.324;2022-12-29T05:01:35;14.47;;;4.03;;
35743;SDS011;21867;52.012;4.324;2022-12-29T05:04:03;11.03;;;4.00;;
35743;SDS011;21867;52.012;4.324;2022-12-29T05:09:13;16.67;;;5.03;;
35743;SDS011;21867;52.012;4.324;2022-12-29T05:11:41;10.80;;;4.73;;
35743;SDS011;21867;52.012;4.324;2022-12-29T05:14:10;11.30;;;4.30;;
35743;SDS011;21867;52.012;4.324;2022-12-29T05:23:31;14.93;;;4.17;;
35743;SDS011;21867;52.012;4.324;2022-12-29T05:26:03;21.63;;;6.03;;
35743;SDS011;21867;52.012;4.324;2022-12-29T05:28:49;19.90;;;5.37;;
35743;SDS011;21867;52.012;4.324;2022-12-29T05:31:19;12.33;;;4.47;;
35743;SDS011;21867;52.012;4.324;2022-12-29T05:33:47;20.63;;;5.53;;
35743;SDS011;21867;52.012;4.324;2022-12-29T05:36:19;14.10;;;5.23;;
35743;SDS011;21867;52.012;4.324;2022-12-29T05:38:51;16.40;;;4.60;;
35743;SDS011;21867;52.012;4.324;2022-12-29T05:41:19;20.90;;;4.73;;
35743;SDS011;21867;52.012;4.324;2022-12-29T05:44:13;11.77;;;3.63;;
35743;SDS011;21867;52.012;4.324;2022-12-29T05:50:13;16.57;;;5.43;;
35743;SDS011;21867;52.012;4.324;2022-12-29T05:53:20;15.67;;;4.43;;
35743;SDS011;21867;52.012;4.324;2022-12-29T05:55:47;15.67;;;4.40;;
35743;SDS011;21867;52.012;4.324;2022-12-29T05:58:15;15.57;;;5.37;;
35743;SDS011;21867;52.012;4.324;2022-12-29T06:00:43;17.67;;;4.20;;
35743;SDS011;21867;52.012;4.324;2022-12-29T06:03:10;15.40;;;4.03;;
35743;SDS011;21867;52.012;4.324;2022-12-29T06:08:22;15.37;;;5.20;;
35743;SDS011;21867;52.012;4.324;2022-12-29T06:10:49;14.63;;;3.80;;
35743;SDS011;21867;52.012;4.324;2022-12-29T06:13:17;22.20;;;6.13;;
35743;SDS011;21867;52.012;4.324;2022-12-29T06:15:48;20.00;;;5.47;;
35743;SDS011;21867;52.012;4.324;2022-12-29T06:18:16;20.77;;;5.33;;
35743;SDS011;21867;52.012;4.324;2022-12-29T06:27:15;21.40;;;5.57;;
35743;SDS011;21867;52.012;4.324;2022-12-29T06:29:43;21.80;;;5.90;;
35743;SDS011;21867;52.012;4.324;2022-12-29T06:32:10;22.83;;;6.40;;
35743;SDS011;21867;52.012;4.324;2022-12-29T06:34:43;18.97;;;6.13;;
35743;SDS011;21867;52.012;4.324;2022-12-29T06:37:27;19.67;;;5.10;;
35743;SDS011;21867;52.012;4.324;2022-12-29T06:39:55;27.00;;;5.80;;
35743;SDS011;21867;52.012;4.324;2022-12-29T06:42:28;21.33;;;6.53;;
35743;SDS011;21867;52.012;4.324;2022-12-29T06:45:15;20.63;;;5.23;;
35743;SDS011;21867;52.012;4.324;2022-12-29T06:47:42;21.17;;;5.40;;
35743;SDS011;21867;52.012;4.324;2022-12-29T06:50:10;22.20;;;6.47;;
35743;SDS011;21867;52.012;4.324;2022-12-29T06:52:40;20.87;;;5.27;;
35743;SDS011;21867;52.012;4.324;2022-12-29T06:55:08;25.57;;;6.47;;
35743;SDS011;21867;52.012;4.324;2022-12-29T06:57:39;22.77;;;5.63;;
35743;SDS011;21867;52.012;4.324;2022-12-29T07:00:07;23.90;;;5.80;;
35743;SDS011;21867;52.012;4.324;2022-12-29T07:06:00;13.83;;;4.93;;
35743;SDS011;21867;52.012;4.324;2022-12-29T07:08:27;16.57;;;4.77;;
35743;SDS011;21867;52.012;4.324;2022-12-29T07:10:55;15.13;;;4.47;;
35743;SDS011;21867;52.012;4.324;2022-12-29T07:13:23;15.90;;;5.90;;
35743;SDS011;21867;52.012;4.324;2022-12-29T07:15:51;17.13;;;5.10;;
35743;SDS011;21867;52.012;4.324;2022-12-29T07:18:18;22.10;;;4.77;;
35743;SDS011;21867;52.012;4.324;2022-12-29T07:20:51;17.17;;;4.97;;
35743;SDS011;21867;52.012;4.324;2022-12-29T07:23:19;14.60;;;4.47;;
35743;SDS011;21867;52.012;4.324;2022-12-29T07:25:46;15.97;;;5.17;;
35743;SDS011;21867;52.012;4.324;2022-12-29T07:28:13;16.50;;;4.90;;
35743;SDS011;21867;52.012;4.324;2022-12-29T07:37:14;16.10;;;5.13;;
35743;SDS011;21867;52.012;4.324;2022-12-29T07:39:42;13.47;;;4.70;;
35743;SDS011;21867;52.012;4.324;2022-12-29T07:42:09;15.53;;;5.57;;
35743;SDS011;21867;52.012;4.324;2022-12-29T07:44:41;21.80;;;5.83;;
35743;SDS011;21867;52.012;4.324;2022-12-29T07:47:15;25.03;;;6.27;;
35743;SDS011;21867;52.012;4.324;2022-12-29T07:52:30;22.67;;;5.80;;
35743;SDS011;21867;52.012;4.324;2022-12-29T07:54:57;17.07;;;5.30;;
35743;SDS011;21867;52.012;4.324;2022-12-29T07:57:25;17.03;;;5.77;;
35743;SDS011;21867;52.012;4.324;2022-12-29T08:00:15;19.83;;;4.93;;
35743;SDS011;21867;52.012;4.324;2022-12-29T08:02:48;21.30;;;5.87;;
35743;SDS011;21867;52.012;4.324;2022-12-29T08:05:28;14.70;;;4.90;;
35743;SDS011;21867;52.012;4.324;2022-12-29T08:07:58;24.97;;;6.43;;
35743;SDS011;21867;52.012;4.324;2022-12-29T08:10:25;21.37;;;5.97;;
35743;SDS011;21867;52.012;4.324;2022-12-29T08:12:53;25.10;;;6.47;;
35743;SDS011;21867;52.012;4.324;2022-12-29T08:15:20;22.43;;;5.73;;
35743;SDS011;21867;52.012;4.324;2022-12-29T08:17:57;21.37;;;6.00;;
35743;SDS011;21867;52.012;4.324;2022-12-29T08:23:15;17.90;;;4.93;;
35743;SDS011;21867;52.012;4.324;2022-12-29T08:25:42;12.67;;;5.47;;
35743;SDS011;21867;52.012;4.324;2022-12-29T08:28:09;15.90;;;5.90;;
35743;SDS011;21867;52.012;4.324;2022-12-29T08:30:37;16.53;;;4.53;;
35743;SDS011;21867;52.012;4.324;2022-12-29T08:33:05;15.73;;;4.97;;
35743;SDS011;21867;52.012;4.324;2022-12-29T08:41:57;15.43;;;4.97;;
35743;SDS011;21867;52.012;4.324;2022-12-29T08:44:24;22.13;;;5.67;;
35743;SDS011;21867;52.012;4.324;2022-12-29T08:46:52;17.80;;;5.43;;
35743;SDS011;21867;52.012;4.324;2022-12-29T08:49:19;19.10;;;5.90;;
35743;SDS011;21867;52.012;4.324;2022-12-29T08:51:46;19.33;;;5.50;;
35743;SDS011;21867;52.012;4.324;2022-12-29T08:54:29;17.93;;;5.77;;
35743;SDS011;21867;52.012;4.324;2022-12-29T08:56:57;17.13;;;5.70;;
35743;SDS011;21867;52.012;4.324;2022-12-29T08:59:35;14.43;;;5.77;;
35743;SDS011;21867;52.012;4.324;2022-12-29T09:02:02;14.60;;;4.47;;
35743;SDS011;21867;52.012;4.324;2022-12-29T09:11:15;19.47;;;5.10;;
35743;SDS011;21867;52.012;4.324;2022-12-29T09:13:44;22.00;;;5.60;;
35743;SDS011;21867;52.012;4.324;2022-12-29T09:16:12;18.27;;;5.73;;
35743;SDS011;21867;52.012;4.324;2022-12-29T09:18:39;16.77;;;5.70;;
35743;SDS011;21867;52.012;4.324;2022-12-29T09:21:07;13.77;;;4.50;;
35743;SDS011;21867;52.012;4.324;2022-12-29T09:26:23;17.37;;;4.37;;
35743;SDS011;21867;52.012;4.324;2022-12-29T09:28:52;14.30;;;5.47;;
35743;SDS011;21867;52.012;4.324;2022-12-29T09:31:19;20.87;;;6.20;;
35743;SDS011;21867;52.012;4.324;2022-12-29T09:40:40;17.23;;;5.60;;
35743;SDS011;21867;52.012;4.324;2022-12-29T09:43:19;18.97;;;5.30;;
35743;SDS011;21867;52.012;4.324;2022-12-29T09:45:52;20.97;;;5.83;;
35743;SDS011;21867;52.012;4.324;2022-12-29T09:48:22;22.27;;;5.37;;
35743;SDS011;21867;52.012;4.324;2022-12-29T09:50:51;22.57;;;5.37;;
35743;SDS011;21867;52.012;4.324;2022-12-29T09:56:02;25.57;;;5.87;;
35743;SDS011;21867;52.012;4.324;2022-12-29T09:58:32;22.53;;;8.30;;
35743;SDS011;21867;52.012;4.324;2022-12-29T10:01:04;24.40;;;7.20;;
35743;SDS011;21867;52.012;4.324;2022-12-29T10:03:34;26.83;;;7.87;;
35743;SDS011;21867;52.012;4.324;2022-12-29T10:06:04;22.60;;;7.43;;
35743;SDS011;21867;52.012;4.324;2022-12-29T10:15:35;19.00;;;5.43;;
35743;SDS011;21867;52.012;4.324;2022-12-29T10:18:10;29.73;;;6.77;;
35743;SDS011;21867;52.012;4.324;2022-12-29T10:20:43;21.20;;;5.00;;
35743;SDS011;21867;52.012;4.324;2022-12-29T10:23:32;32.00;;;7.73;;
35743;SDS011;21867;52.012;4.324;2022-12-29T10:26:01;21.23;;;6.17;;
35743;SDS011;21867;52.012;4.324;2022-12-29T10:28:33;22.63;;;5.43;;
35743;SDS011;21867;52.012;4.324;2022-12-29T10:31:01;14.10;;;5.60;;
35743;SDS011;21867;52.012;4.324;2022-12-29T10:33:36;14.97;;;4.57;;
35743;SDS011;21867;52.012;4.324;2022-12-29T10:36:09;19.60;;;6.13;;
35743;SDS011;21867;52.012;4.324;2022-12-29T10:41:28;23.37;;;5.57;;
35743;SDS011;21867;52.012;4.324;2022-12-29T10:43:56;26.73;;;6.43;;
35743;SDS011;21867;52.012;4.324;2022-12-29T10:46:25;30.30;;;5.70;;
35743;SDS011;21867;52.012;4.324;2022-12-29T10:52:04;15.30;;;5.57;;
35743;SDS011;21867;52.012;4.324;2022-12-29T10:57:26;16.93;;;3.90;;
35743;SDS011;21867;52.012;4.324;2022-12-29T10:59:54;20.87;;;5.30;;
35743;SDS011;21867;52.012;4.324;2022-12-29T11:05:10;19.53;;;5.33;;
35743;SDS011;21867;52.012;4.324;2022-12-29T11:10:36;15.87;;;4.17;;
35743;SDS011;21867;52.012;4.324;2022-12-29T11:13:05;15.73;;;5.23;;
35743;SDS011;21867;52.012;4.324;2022-12-29T11:15:38;14.73;;;4.60;;
35743;SDS011;21867;52.012;4.324;2022-12-29T11:18:17;14.83;;;3.83;;
35743;SDS011;21867;52.012;4.324;2022-12-29T11:24:26;17.20;;;5.00;;
35743;SDS011;21867;52.012;4.324;2022-12-29T11:26:55;17.77;;;4.60;;
35743;SDS011;21867;52.012;4.324;2022-12-29T11:29:24;16.50;;;3.67;;
35743;SDS011;21867;52.012;4.324;2022-12-29T11:31:52;12.87;;;3.37;;
35743;SDS011;21867;52.012;4.324;2022-12-29T11:34:20;11.47;;;4.03;;
35743;SDS011;21867;52.012;4.324;2022-12-29T11:36:49;12.17;;;4.03;;
35743;SDS011;21867;52.012;4.324;2022-12-29T11:39:26;17.70;;;4.87;;
35743;SDS011;21867;52.012;4.324;2022-12-29T11:41:56;13.30;;;3.77;;
35743;SDS011;21867;52.012;4.324;2022-12-29T11:44:23;12.73;;;4.20;;
35743;SDS011;21867;52.012;4.324;2022-12-29T11:46:51;11.43;;;4.13;;
35743;SDS011;21867;52.012;4.324;2022-12-29T11:49:20;18.80;;;5.57;;
35743;SDS011;21867;52.012;4.324;2022-12-29T11:51:48;14.63;;;4.00;;
35743;SDS011;21867;52.012;4.324;2022-12-29T11:54:17;12.57;;;4.10;;
35743;SDS011;21867;52.012;4.324;2022-12-29T11:56:49;18.40;;;5.40;;
35743;SDS011;21867;52.012;4.324;2022-12-29T11:59:35;19.87;;;4.23;;
35743;SDS011;21867;52.012;4.324;2022-12-29T12:02:14;23.80;;;5.20;;
35743;SDS011;21867;52.012;4.324;2022-12-29T12:04:42;19.17;;;5.93;;
35743;SDS011;21867;52.012;4.324;2022-12-29T12:07:32;20.80;;;5.87;;
35743;SDS011;21867;52.012;4.324;2022-12-29T12:10:03;18.13;;;6.87;;
35743;SDS011;21867;52.012;4.324;2022-12-29T12:12:34;19.87;;;4.47;;
35743;SDS011;21867;52.012;4.324;2022-12-29T12:15:05;8.17;;;3.23;;
35743;SDS011;21867;52.012;4.324;2022-12-29T12:17:43;18.23;;;4.07;;
35743;SDS011;21867;52.012;4.324;2022-12-29T12:20:16;15.17;;;3.73;;
35743;SDS011;21867;52.012;4.324;2022-12-29T12:22:52;20.03;;;4.80;;
35743;SDS011;21867;52.012;4.324;2022-12-29T12:25:23;12.70;;;4.23;;
35743;SDS011;21867;52.012;4.324;2022-12-29T12:27:53;14.87;;;4.13;;
35743;SDS011;21867;52.012;4.324;2022-12-29T12:30:25;13.03;;;5.10;;
35743;SDS011;21867;52.012;4.324;2022-12-29T12:39:44;12.83;;;3.90;;
35743;SDS011;21867;52.012;4.324;2022-12-29T12:42:19;16.03;;;3.87;;
35743;SDS011;21867;52.012;4.324;2022-12-29T12:44:51;18.37;;;4.67;;
35743;SDS011;21867;52.012;4.324;2022-12-29T12:47:34;18.43;;;5.10;;
35743;SDS011;21867;52.012;4.324;2022-12-29T12:50:23;19.30;;;5.10;;
35743;SDS011;21867;52.012;4.324;2022-12-29T12:52:57;17.57;;;4.40;;
35743;SDS011;21867;52.012;4.324;2022-12-29T12:55:39;18.53;;;4.73;;
35743;SDS011;21867;52.012;4.324;2022-12-29T12:58:10;15.53;;;4.07;;
35743;SDS011;21867;52.012;4.324;2022-12-29T13:00:40;14.40;;;4.37;;
35743;SDS011;21867;52.012;4.324;2022-12-29T13:03:12;14.93;;;3.30;;
35743;SDS011;21867;52.012;4.324;2022-12-29T13:06:01;11.23;;;3.70;;
35743;SDS011;21867;52.012;4.324;2022-12-29T13:08:35;12.60;;;4.70;;
35743;SDS011;21867;52.012;4.324;2022-12-29T13:11:08;16.50;;;5.30;;
35743;SDS011;21867;52.012;4.324;2022-12-29T13:13:45;18.77;;;5.23;;
35743;SDS011;21867;52.012;4.324;2022-12-29T13:16:15;12.30;;;3.40;;
35743;SDS011;21867;52.012;4.324;2022-12-29T13:18:48;16.60;;;5.07;;
35743;SDS011;21867;52.012;4.324;2022-12-29T13:21:20;14.07;;;4.13;;
35743;SDS011;21867;52.012;4.324;2022-12-29T13:23:53;14.07;;;4.70;;
35743;SDS011;21867;52.012;4.324;2022-12-29T13:26:22;19.03;;;5.63;;
35743;SDS011;21867;52.012;4.324;2022-12-29T13:28:53;12.20;;;3.97;;
35743;SDS011;21867;52.012;4.324;2022-12-29T13:31:24;15.40;;;3.37;;
35743;SDS011;21867;52.012;4.324;2022-12-29T13:33:57;16.00;;;5.20;;
35743;SDS011;21867;52.012;4.324;2022-12-29T13:36:27;16.63;;;4.30;;
35743;SDS011;21867;52.012;4.324;2022-12-29T13:39:00;10.17;;;3.33;;
35743;SDS011;21867;52.012;4.324;2022-12-29T13:41:30;14.20;;;3.80;;
35743;SDS011;21867;52.012;4.324;2022-12-29T13:43:58;6.60;;;2.63;;
35743;SDS011;21867;52.012;4.324;2022-12-29T13:46:29;13.47;;;4.73;;
35743;SDS011;21867;52.012;4.324;2022-12-29T13:48:59;18.50;;;5.20;;
35743;SDS011;21867;52.012;4.324;2022-12-29T13:51:29;10.63;;;3.87;;
35743;SDS011;21867;52.012;4.324;2022-12-29T13:54:05;9.93;;;3.90;;
35743;SDS011;21867;52.012;4.324;2022-12-29T13:56:35;11.73;;;3.87;;
35743;SDS011;21867;52.012;4.324;2022-12-29T13:59:05;11.80;;;3.77;;
35743;SDS011;21867;52.012;4.324;2022-12-29T14:01:37;12.10;;;4.17;;
35743;SDS011;21867;52.012;4.324;2022-12-29T14:04:11;15.67;;;5.27;;
35743;SDS011;21867;52.012;4.324;2022-12-29T14:06:38;10.43;;;3.00;;
35743;SDS011;21867;52.012;4.324;2022-12-29T14:09:06;11.80;;;4.30;;
35743;SDS011;21867;52.012;4.324;2022-12-29T14:12:00;10.47;;;4.17;;
35743;SDS011;21867;52.012;4.324;2022-12-29T14:14:28;13.30;;;4.63;;
35743;SDS011;21867;52.012;4.324;2022-12-29T14:16:58;14.10;;;3.77;;
35743;SDS011;21867;52.012;4.324;2022-12-29T14:19:42;11.47;;;4.53;;
35743;SDS011;21867;52.012;4.324;2022-12-29T14:22:10;14.67;;;4.17;;
35743;SDS011;21867;52.012;4.324;2022-12-29T14:24:39;9.53;;;3.67;;
35743;SDS011;21867;52.012;4.324;2022-12-29T14:29:50;13.60;;;3.90;;
35743;SDS011;21867;52.012;4.324;2022-12-29T14:35:31;12.63;;;3.70;;
35743;SDS011;21867;52.012;4.324;2022-12-29T14:37:48;16.80;;;3.83;;
35743;SDS011;21867;52.012;4.324;2022-12-29T14:40:31;16.13;;;4.87;;
35743;SDS011;21867;52.012;4.324;2022-12-29T14:42:58;11.37;;;4.20;;
35743;SDS011;21867;52.012;4.324;2022-12-29T14:45:26;12.77;;;3.77;;
35743;SDS011;21867;52.012;4.324;2022-12-29T14:47:54;17.27;;;4.33;;
35743;SDS011;21867;52.012;4.324;2022-12-29T14:50:24;22.40;;;4.53;;
35743;SDS011;21867;52.012;4.324;2022-12-29T14:52:52;12.73;;;4.07;;
35743;SDS011;21867;52.012;4.324;2022-12-29T14:55:29;11.37;;;3.40;;
35743;SDS011;21867;52.012;4.324;2022-12-29T14:57:57;9.67;;;3.30;;
35743;SDS011;21867;52.012;4.324;2022-12-29T15:00:27;16.70;;;4.40;;
35743;SDS011;21867;52.012;4.324;2022-12-29T15:03:01;16.20;;;3.63;;
35743;SDS011;21867;52.012;4.324;2022-12-29T15:05:31;13.27;;;3.70;;
35743;SDS011;21867;52.012;4.324;2022-12-29T15:07:59;11.43;;;4.20;;
35743;SDS011;21867;52.012;4.324;2022-12-29T15:10:30;17.93;;;4.33;;
35743;SDS011;21867;52.012;4.324;2022-12-29T15:13:02;14.70;;;4.37;;
35743;SDS011;21867;52.012;4.324;2022-12-29T15:15:35;12.17;;;3.20;;
35743;SDS011;21867;52.012;4.324;2022-12-29T15:18:12;12.87;;;3.63;;
35743;SDS011;21867;52.012;4.324;2022-12-29T15:20:41;13.90;;;4.23;;
35743;SDS011;21867;52.012;4.324;2022-12-29T15:23:10;17.97;;;5.13;;
35743;SDS011;21867;52.012;4.324;2022-12-29T15:25:44;16.63;;;4.63;;
35743;SDS011;21867;52.012;4.324;2022-12-29T15:28:13;13.87;;;4.20;;
35743;SDS011;21867;52.012;4.324;2022-12-29T15:30:49;16.90;;;4.67;;
35743;SDS011;21867;52.012;4.324;2022-12-29T15:33:17;13.77;;;4.33;;
35743;SDS011;21867;52.012;4.324;2022-12-29T15:35:49;14.83;;;3.47;;
35743;SDS011;21867;52.012;4.324;2022-12-29T15:38:19;20.10;;;4.83;;
35743;SDS011;21867;52.012;4.324;2022-12-29T15:40:57;15.00;;;3.80;;
35743;SDS011;21867;52.012;4.324;2022-12-29T15:43:32;21.53;;;4.63;;
35743;SDS011;21867;52.012;4.324;2022-12-29T15:46:08;15.50;;;5.80;;
35743;SDS011;21867;52.012;4.324;2022-12-29T15:48:37;14.53;;;5.40;;
35743;SDS011;21867;52.012;4.324;2022-12-29T15:51:09;18.50;;;4.60;;
35743;SDS011;21867;52.012;4.324;2022-12-29T15:53:41;13.10;;;4.20;;
35743;SDS011;21867;52.012;4.324;2022-12-29T15:56:09;16.47;;;4.03;;
35743;SDS011;21867;52.012;4.324;2022-12-29T15:58:39;16.83;;;4.53;;
35743;SDS011;21867;52.012;4.324;2022-12-29T16:01:15;9.10;;;4.33;;
35743;SDS011;21867;52.012;4.324;2022-12-29T16:03:44;14.43;;;4.93;;
35743;SDS011;21867;52.012;4.324;2022-12-29T16:06:25;15.60;;;4.43;;
35743;SDS011;21867;52.012;4.324;2022-12-29T16:08:55;14.50;;;4.40;;
35743;SDS011;21867;52.012;4.324;2022-12-29T16:11:23;10.90;;;3.57;;
35743;SDS011;21867;52.012;4.324;2022-12-29T16:13:52;15.60;;;4.90;;
35743;SDS011;21867;52.012;4.324;2022-12-29T16:16:21;12.50;;;4.70;;
35743;SDS011;21867;52.012;4.324;2022-12-29T16:18:49;17.23;;;4.50;;
35743;SDS011;21867;52.012;4.324;2022-12-29T16:21:24;13.70;;;4.43;;
35743;SDS011;21867;52.012;4.324;2022-12-29T16:23:53;15.57;;;5.07;;
35743;SDS011;21867;52.012;4.324;2022-12-29T16:26:21;10.33;;;4.60;;
35743;SDS011;21867;52.012;4.324;2022-12-29T16:28:50;15.33;;;4.20;;
35743;SDS011;21867;52.012;4.324;2022-12-29T16:31:20;13.20;;;4.60;;
35743;SDS011;21867;52.012;4.324;2022-12-29T16:33:48;12.57;;;3.77;;
35743;SDS011;21867;52.012;4.324;2022-12-29T16:36:23;15.13;;;4.20;;
35743;SDS011;21867;52.012;4.324;2022-12-29T16:38:52;16.63;;;4.90;;
35743;SDS011;21867;52.012;4.324;2022-12-29T16:41:30;19.57;;;4.90;;
35743;SDS011;21867;52.012;4.324;2022-12-29T16:44:12;14.57;;;4.77;;
35743;SDS011;21867;52.012;4.324;2022-12-29T16:46:43;19.07;;;5.90;;
35743;SDS011;21867;52.012;4.324;2022-12-29T16:49:14;13.03;;;4.10;;
35743;SDS011;21867;52.012;4.324;2022-12-29T16:51:48;12.17;;;4.33;;
35743;SDS011;21867;52.012;4.324;2022-12-29T16:54:19;14.70;;;4.17;;
35743;SDS011;21867;52.012;4.324;2022-12-29T16:56:47;12.27;;;4.60;;
35743;SDS011;21867;52.012;4.324;2022-12-29T16:59:21;13.13;;;4.47;;
35743;SDS011;21867;52.012;4.324;2022-12-29T17:01:50;13.60;;;3.73;;
35743;SDS011;21867;52.012;4.324;2022-12-29T17:04:18;16.23;;;4.90;;
35743;SDS011;21867;52.012;4.324;2022-12-29T17:06:45;14.37;;;4.07;;
35743;SDS011;21867;52.012;4.324;2022-12-29T17:09:16;11.37;;;3.63;;
35743;SDS011;21867;52.012;4.324;2022-12-29T17:11:44;13.67;;;4.83;;
35743;SDS011;21867;52.012;4.324;2022-12-29T17:14:25;11.60;;;4.20;;
35743;SDS011;21867;52.012;4.324;2022-12-29T17:16:54;10.87;;;4.40;;
35743;SDS011;21867;52.012;4.324;2022-12-29T17:19:24;10.67;;;3.83;;
35743;SDS011;21867;52.012;4.324;2022-12-29T17:21:53;5.87;;;3.00;;
35743;SDS011;21867;52.012;4.324;2022-12-29T17:24:20;14.77;;;4.80;;
35743;SDS011;21867;52.012;4.324;2022-12-29T17:26:50;13.63;;;3.97;;
35743;SDS011;21867;52.012;4.324;2022-12-29T17:29:19;17.83;;;4.20;;
35743;SDS011;21867;52.012;4.324;2022-12-29T17:31:47;9.67;;;4.07;;
35743;SDS011;21867;52.012;4.324;2022-12-29T17:34:15;13.77;;;3.43;;
35743;SDS011;21867;52.012;4.324;2022-12-29T17:36:42;11.17;;;3.20;;